Time;durP1;ratioP1;P1;durP2;ratioP2;P2;SDS_P1;SDS_P2;PMS_P1;PMS_P2;Temp;Humidity;BMP_temperature;BMP_pressure;BME280_temperature;BME280_humidity;BME280_pressure;Samples;Min_cycle;Max_cycle;Signal;HPM_P1;HPM_P2
2023/06/26 00:00:11;;;;;;;22.95;17.90;;;;;;;19.53;100.00;65031.94;5050627;28;20243;-55
2023/06/26 00:02:37;;;;;;;27.08;19.90;;;;;;;19.46;100.00;65027.31;5050869;28;20259;-57
2023/06/26 00:05:02;;;;;;;24.30;19.25;;;;;;;19.49;100.00;65024.97;5050822;28;20206;-59
2023/06/26 00:07:29;;;;;;;26.80;18.52;;;;;;;19.45;100.00;65021.13;5050573;28;20214;-59
2023/06/26 00:09:55;;;;;;;26.05;18.52;;;;;;;19.46;100.00;65022.22;5050361;28;20255;-60
2023/06/26 00:12:20;;;;;;;21.58;18.48;;;;;;;19.49;100.00;65027.53;5032725;28;20209;-57
2023/06/26 00:14:45;;;;;;;26.30;18.17;;;;;;;19.41;100.00;65016.69;5050412;28;20201;-56
2023/06/26 00:17:11;;;;;;;25.58;16.90;;;;;;;19.46;100.00;65024.22;5050493;28;20201;-60
2023/06/26 00:19:37;;;;;;;23.52;17.27;;;;;;;19.34;100.00;65010.97;5050287;28;20205;-59
2023/06/26 00:22:02;;;;;;;20.30;16.15;;;;;;;19.34;100.00;65014.06;5050431;28;20574;-56
2023/06/26 00:24:27;;;;;;;21.83;17.63;;;;;;;19.26;100.00;65003.22;5050267;28;20742;-58
2023/06/26 00:26:53;;;;;;;19.02;15.90;;;;;;;19.32;100.00;65011.84;5050099;28;20213;-55
2023/06/26 00:29:18;;;;;;;20.17;16.05;;;;;;;19.29;100.00;65006.53;5050149;28;20243;-56
2023/06/26 00:31:44;;;;;;;20.40;16.67;;;;;;;19.35;100.00;65012.06;5050254;28;20206;-57
2023/06/26 00:34:09;;;;;;;19.52;15.35;;;;;;;19.29;100.00;65008.53;5051215;28;20216;-58
2023/06/26 00:36:35;;;;;;;21.75;16.15;;;;;;;19.29;100.00;65005.97;5053639;28;20201;-57
2023/06/26 00:39:00;;;;;;;21.75;15.07;;;;;;;19.25;100.00;65001.56;5054022;28;20223;-57
2023/06/26 00:41:26;;;;;;;23.00;16.00;;;;;;;19.21;100.00;64994.59;5035727;28;20190;-57
2023/06/26 00:43:51;;;;;;;19.48;15.23;;;;;;;19.23;100.00;64999.91;5053845;28;20221;-57
2023/06/26 00:46:16;;;;;;;21.70;15.23;;;;;;;19.19;100.00;64994.94;5035807;28;20197;-56
2023/06/26 00:48:44;;;;;;;19.55;14.93;;;;;;;19.21;100.00;64997.13;5053543;28;20606;-55
2023/06/26 00:51:10;;;;;;;21.20;14.98;;;;;;;19.17;100.00;64990.16;5035770;28;20197;-57
2023/06/26 00:53:35;;;;;;;22.73;14.55;;;;;;;19.18;100.00;64996.41;5053419;28;20221;-56
2023/06/26 00:56:02;;;;;;;19.73;14.77;;;;;;;19.28;100.00;65008.00;5053501;28;20247;-57
2023/06/26 00:58:28;;;;;;;16.33;13.75;;;;;;;19.22;100.00;65000.81;5053804;28;20217;-56
2023/06/26 01:00:54;;;;;;;20.35;13.90;;;;;;;19.21;100.00;64997.13;5053370;28;20198;-56
2023/06/26 01:03:22;;;;;;;16.95;13.65;;;;;;;19.24;100.00;65001.00;5035613;28;20225;-56
2023/06/26 01:05:50;;;;;;;17.65;12.85;;;;;;;19.27;100.00;65001.22;5053569;28;20205;-56
2023/06/26 01:08:16;;;;;;;17.50;13.55;;;;;;;19.24;100.00;65001.00;5053290;28;20225;-56
2023/06/26 01:10:42;;;;;;;16.50;13.05;;;;;;;19.23;100.00;64999.91;5053194;28;20201;-58
2023/06/26 01:13:08;;;;;;;15.10;12.48;;;;;;;19.26;100.00;65000.13;5053170;28;20216;-60
2023/06/26 01:15:34;;;;;;;15.43;12.65;;;;;;;19.25;100.00;65004.09;5053038;28;20266;-60
2023/06/26 01:18:03;;;;;;;14.38;11.90;;;;;;;19.18;100.00;64993.84;5035070;28;20292;-57
2023/06/26 01:20:41;;;;;;;14.35;12.32;;;;;;;19.13;100.00;64985.75;5052963;28;20212;-56
2023/06/26 01:23:53;;;;;;;14.85;12.32;;;;;;;19.11;100.00;64986.66;5053448;28;20200;-60
2023/06/26 01:26:20;;;;;;;17.33;12.88;;;;;;;19.07;100.00;64981.69;4972347;28;20286;-56
2023/06/26 01:28:48;;;;;;;14.98;12.90;;;;;;;19.08;100.00;64980.81;4972005;28;20223;-56
2023/06/26 01:31:15;;;;;;;15.00;12.38;;;;;;;19.09;100.00;64983.91;5016502;28;20209;-56
2023/06/26 01:33:48;;;;;;;14.20;12.70;;;;;;;19.00;100.00;64973.97;5035043;28;20210;-56
2023/06/26 01:36:14;;;;;;;16.38;13.07;;;;;;;18.98;100.00;64971.75;5052941;28;20809;-59
2023/06/26 01:38:39;;;;;;;14.68;11.52;;;;;;;19.04;100.00;64978.38;5052671;28;20704;-60
2023/06/26 01:41:06;;;;;;;13.85;12.07;;;;;;;18.95;100.00;64969.00;5052822;28;20189;-59
2023/06/26 01:43:43;;;;;;;14.15;11.63;;;;;;;18.99;100.00;64975.41;5053016;28;20679;-56
2023/06/26 01:46:44;;;;;;;16.33;12.30;;;;;;;18.88;100.00;64960.72;5051783;28;20211;-60
2023/06/26 01:49:25;;;;;;;17.90;12.52;;;;;;;18.92;100.00;64965.16;5048418;28;20251;-58
2023/06/26 01:52:14;;;;;;;15.93;12.15;;;;;;;18.85;100.00;64957.97;5052594;28;20200;-58
2023/06/26 01:54:52;;;;;;;16.55;12.50;;;;;;;18.86;100.00;64958.53;5052548;28;20219;-57
2023/06/26 01:57:18;;;;;;;16.85;11.55;;;;;;;18.93;100.00;64963.69;5052629;28;20177;-56
2023/06/26 01:59:46;;;;;;;15.23;12.98;;;;;;;18.85;100.00;64954.84;5052598;28;20284;-56
2023/06/26 02:02:12;;;;;;;15.55;13.13;;;;;;;18.86;100.00;64955.97;5034618;28;20205;-57
2023/06/26 02:04:37;;;;;;;16.27;12.77;;;;;;;18.88;100.00;64958.72;5052483;28;20277;-55
2023/06/26 02:07:03;;;;;;;16.10;12.20;;;;;;;18.87;100.00;64960.16;5052445;28;20575;-55
2023/06/26 02:09:28;;;;;;;15.90;13.38;;;;;;;18.81;100.00;64953.00;5052360;28;20244;-55
2023/06/26 02:11:54;;;;;;;17.42;12.05;;;;;;;18.86;100.00;64959.09;5052310;28;20201;-55
2023/06/26 02:14:19;;;;;;;15.05;13.23;;;;;;;18.83;100.00;64953.22;5052251;28;20212;-55
2023/06/26 02:16:45;;;;;;;13.75;12.35;;;;;;;18.78;100.00;64949.69;5034258;28;20663;-58
2023/06/26 02:19:10;;;;;;;18.90;13.02;;;;;;;18.85;100.00;64959.97;5052299;28;20747;-56
2023/06/26 02:21:36;;;;;;;16.08;12.05;;;;;;;18.74;100.00;64945.28;5052101;28;20236;-59
2023/06/26 02:24:01;;;;;;;16.60;12.52;;;;;;;18.71;100.00;64945.06;5052121;28;20213;-55
2023/06/26 02:26:27;;;;;;;16.15;12.15;;;;;;;18.79;100.00;64953.34;5052227;28;20190;-61
2023/06/26 02:28:53;;;;;;;15.48;12.95;;;;;;;18.75;100.00;64946.94;5065980;22;20220;-59
2023/06/26 02:31:18;;;;;;;18.00;13.80;;;;;;;18.78;100.00;64949.69;5072012;28;20208;-59
2023/06/26 02:33:45;;;;;;;18.13;13.80;;;;;;;18.78;100.00;64950.25;5071817;28;20201;-58
2023/06/26 02:36:10;;;;;;;15.40;13.52;;;;;;;18.75;100.00;64946.38;5071867;28;20256;-58
2023/06/26 02:38:36;;;;;;;16.70;14.38;;;;;;;18.75;100.00;64948.94;5071926;28;20285;-57
2023/06/26 02:41:01;;;;;;;16.27;14.02;;;;;;;18.76;100.00;64948.03;5071931;28;20580;-54
2023/06/26 02:43:27;;;;;;;18.00;14.77;;;;;;;18.77;100.00;64948.59;5071931;28;20227;-55
2023/06/26 02:45:52;;;;;;;19.98;15.52;;;;;;;18.62;100.00;64932.59;5071764;28;20658;-56
2023/06/26 02:48:17;;;;;;;19.77;16.67;;;;;;;18.72;100.00;64946.19;5071584;28;20217;-55
2023/06/26 02:50:45;;;;;;;18.98;15.55;;;;;;;18.71;100.00;64941.97;5071662;28;20190;-59
2023/06/26 02:53:11;;;;;;;19.23;16.02;;;;;;;18.73;100.00;64946.72;5071619;28;20209;-55
2023/06/26 02:55:37;;;;;;;18.55;16.33;;;;;;;18.57;100.00;64924.53;5071534;28;20287;-56
2023/06/26 02:58:02;;;;;;;22.20;17.13;;;;;;;18.59;100.00;64926.16;5053437;28;20208;-56
2023/06/26 03:00:29;;;;;;;20.95;16.73;;;;;;;18.62;100.00;64932.03;5071238;28;20208;-56
2023/06/26 03:02:55;;;;;;;20.33;17.25;;;;;;;18.50;100.00;64918.81;5069916;28;20258;-60
2023/06/26 03:05:21;;;;;;;22.73;17.77;;;;;;;18.56;100.00;64927.97;5070779;28;20201;-56
2023/06/26 03:07:46;;;;;;;18.83;16.77;;;;;;;18.45;100.00;64913.84;5070475;28;20212;-56
2023/06/26 03:10:12;;;;;;;23.52;18.35;;;;;;;18.55;100.00;64924.31;5052738;28;20701;-56
2023/06/26 03:12:37;;;;;;;25.30;18.75;;;;;;;18.41;100.00;64912.50;5071312;28;20200;-55
2023/06/26 03:15:03;;;;;;;24.38;18.95;;;;;;;18.46;100.00;64911.84;5071178;28;20208;-57
2023/06/26 03:17:28;;;;;;;22.55;18.77;;;;;;;18.44;100.00;64912.75;5071349;28;20197;-59
2023/06/26 03:19:54;;;;;;;21.17;16.25;;;;;;;18.77;100.00;64949.13;5071305;28;20215;-59
2023/06/26 03:22:19;;;;;;;20.90;17.35;;;;;;;18.94;100.00;64964.78;5071274;28;20189;-56
2023/06/26 03:24:45;;;;;;;21.55;18.73;;;;;;;18.82;100.00;64957.22;5071387;28;20217;-56
2023/06/26 03:27:11;;;;;;;21.13;17.52;;;;;;;18.77;100.00;64949.13;5071259;28;20196;-55
2023/06/26 03:29:37;;;;;;;20.52;16.88;;;;;;;18.73;100.00;64942.19;5071457;28;20296;-55
2023/06/26 03:32:02;;;;;;;21.33;17.77;;;;;;;18.67;100.00;64938.09;5071147;28;20279;-57
2023/06/26 03:34:28;;;;;;;21.48;18.25;;;;;;;18.60;100.00;64927.84;5071102;28;20614;-56
2023/06/26 03:36:53;;;;;;;20.70;17.70;;;;;;;18.64;100.00;64929.69;5071124;28;20208;-55
2023/06/26 03:39:19;;;;;;;19.30;16.30;;;;;;;18.74;100.00;64945.84;5071160;28;20248;-59
2023/06/26 03:41:44;;;;;;;20.40;18.20;;;;;;;18.67;100.00;64937.56;5071157;28;20326;-55
2023/06/26 03:44:09;;;;;;;19.80;16.92;;;;;;;18.67;100.00;64937.56;5071204;28;20252;-56
2023/06/26 03:46:35;;;;;;;23.08;18.33;;;;;;;18.82;100.00;64951.56;5070827;28;20197;-57
2023/06/26 03:49:00;;;;;;;21.80;18.08;;;;;;;18.69;100.00;64942.88;5071125;28;20212;-58
2023/06/26 03:51:26;;;;;;;20.90;17.35;;;;;;;18.61;100.00;64930.94;5070855;28;20188;-58
2023/06/26 03:53:51;;;;;;;19.58;17.40;;;;;;;18.69;100.00;64939.75;5070856;28;20631;-58
2023/06/26 03:56:16;;;;;;;22.25;17.38;;;;;;;18.64;100.00;64937.38;5070619;28;20226;-59
2023/06/26 03:58:42;;;;;;;24.05;18.45;;;;;;;18.62;100.00;64932.03;5071061;28;20689;-57
2023/06/26 04:01:07;;;;;;;19.58;17.48;;;;;;;18.58;100.00;64930.19;5070799;28;20219;-58
2023/06/26 04:03:33;;;;;;;21.88;17.80;;;;;;;18.68;100.00;64938.66;5070511;28;20227;-55
2023/06/26 04:05:59;;;;;;;23.08;17.77;;;;;;;18.70;100.00;64943.44;5070629;28;20637;-57
2023/06/26 04:08:27;;;;;;;20.38;17.45;;;;;;;18.76;100.00;64944.94;5070487;28;20248;-58
2023/06/26 04:10:53;;;;;;;19.92;17.75;;;;;;;18.72;100.00;64945.63;5055713;28;20291;-57
2023/06/26 04:13:19;;;;;;;21.50;18.05;;;;;;;18.76;100.00;64944.94;5074337;28;20209;-56
2023/06/26 04:15:44;;;;;;;21.90;16.90;;;;;;;18.84;100.00;64956.88;5074094;28;20265;-57
2023/06/26 04:18:09;;;;;;;18.92;16.40;;;;;;;18.93;100.00;64964.25;5074096;28;20287;-61
2023/06/26 04:20:40;;;;;;;20.38;17.15;;;;;;;18.93;100.00;64966.78;5074016;28;20197;-60
2023/06/26 04:23:06;;;;;;;19.33;15.95;;;;;;;18.99;100.00;64972.84;5055981;28;20197;-60
2023/06/26 04:25:31;;;;;;;19.67;17.30;;;;;;;18.99;100.00;64972.84;5073937;28;20311;-56
2023/06/26 04:27:57;;;;;;;20.48;16.20;;;;;;;19.09;100.00;64983.91;5073907;28;20632;-57
2023/06/26 04:30:22;;;;;;;20.23;16.67;;;;;;;19.15;100.00;64991.06;5073983;28;20745;-55
2023/06/26 04:32:48;;;;;;;21.08;16.08;;;;;;;19.11;100.00;64986.09;5073885;28;20196;-54
2023/06/26 04:35:13;;;;;;;21.35;16.55;;;;;;;19.10;100.00;64988.13;5073765;28;20657;-55
2023/06/26 04:37:39;;;;;;;19.20;16.02;;;;;;;19.15;100.00;64987.97;5073847;28;20666;-55
2023/06/26 04:40:06;;;;;;;20.15;16.27;;;;;;;19.20;100.00;64994.03;5073786;28;20217;-58
2023/06/26 04:42:32;;;;;;;20.15;15.75;;;;;;;19.25;100.00;64999.56;5073817;28;20188;-56
2023/06/26 04:44:57;;;;;;;21.08;16.55;;;;;;;20.20;100.00;65105.97;5073717;28;20230;-57
2023/06/26 04:47:23;;;;;;;21.90;16.42;;;;;;;19.90;100.00;65072.78;5073496;28;20201;-55
2023/06/26 04:49:48;;;;;;;22.02;16.67;;;;;;;19.82;100.00;65058.84;5073376;28;20730;-55
2023/06/26 04:52:14;;;;;;;19.67;15.80;;;;;;;19.77;100.00;65056.44;5073516;28;20239;-56
2023/06/26 04:54:39;;;;;;;19.70;15.45;;;;;;;19.89;100.00;65072.25;5073737;28;20292;-56
2023/06/26 04:57:05;;;;;;;19.10;15.93;;;;;;;19.87;100.00;65069.50;5072913;28;20599;-59
2023/06/26 04:59:31;;;;;;;17.70;15.55;;;;;;;19.96;100.00;65077.41;5053260;28;20290;-60
2023/06/26 05:01:57;;;;;;;19.23;15.05;;;;;;;19.93;100.00;65073.56;5073106;28;20189;-56
2023/06/26 05:04:22;;;;;;;18.63;16.13;;;;;;;19.80;100.00;65059.19;5073524;28;20225;-56
2023/06/26 05:06:48;;;;;;;20.98;16.27;;;;;;;19.52;100.00;65031.38;5073164;28;20683;-56
2023/06/26 05:09:14;;;;;;;18.30;16.30;;;;;;;19.90;100.00;65073.34;5055036;28;20209;-57
2023/06/26 05:11:39;;;;;;;17.50;15.63;;;;;;;20.10;100.00;65092.88;5073342;28;20219;-59
2023/06/26 05:14:07;;;;;;;18.17;16.08;;;;;;;20.00;100.00;65081.84;5073332;28;20286;-57
2023/06/26 05:16:34;;;;;;;18.42;16.48;;;;;;;19.84;100.00;65063.63;5073041;28;20189;-57
2023/06/26 05:19:00;;;;;;;19.48;16.35;;;;;;;19.76;100.00;65059.91;5055025;28;20221;-58
2023/06/26 05:21:25;;;;;;;19.08;16.63;;;;;;;19.88;100.00;65068.59;5071620;28;20597;-57
2023/06/26 05:23:54;;;;;;;21.48;15.80;;;;;;;20.16;100.00;65104.06;5073218;28;20697;-57
2023/06/26 05:26:27;;;;;;;17.48;15.55;;;;;;;20.05;100.00;65087.38;5072379;28;20279;-57
2023/06/26 05:28:53;;;;;;;18.48;15.75;;;;;;;20.15;100.00;65097.31;5071720;28;20236;-61
2023/06/26 05:31:19;;;;;;;18.85;15.25;;;;;;;19.83;100.00;65062.53;5070680;28;20969;-60
2023/06/26 05:33:46;;;;;;;20.02;16.17;;;;;;;19.84;100.00;65066.72;5072126;28;20201;-61
2023/06/26 05:36:13;;;;;;;21.27;16.33;;;;;;;19.73;100.00;65054.03;5071437;28;20228;-59
2023/06/26 05:38:39;;;;;;;17.10;15.20;;;;;;;19.74;100.00;65055.69;5070623;28;20209;-58
2023/06/26 05:41:05;;;;;;;17.80;15.80;;;;;;;19.63;100.00;65043.00;5071257;28;20254;-61
2023/06/26 05:43:30;;;;;;;16.40;14.77;;;;;;;19.69;100.00;65050.19;5072718;28;20299;-60
2023/06/26 05:45:57;;;;;;;17.67;15.73;;;;;;;19.81;100.00;65062.88;5072667;28;20201;-61
2023/06/26 05:48:23;;;;;;;18.52;16.27;;;;;;;19.70;100.00;65053.28;5072839;28;20221;-59
2023/06/26 05:50:49;;;;;;;19.42;15.60;;;;;;;19.80;100.00;65062.31;5072535;28;20235;-57
2023/06/26 05:53:14;;;;;;;17.45;15.25;;;;;;;19.93;100.00;65074.13;5072288;28;20219;-60
2023/06/26 05:55:42;;;;;;;20.42;15.93;;;;;;;19.99;100.00;65085.88;5072462;28;20181;-59
2023/06/26 05:58:10;;;;;;;17.98;14.60;;;;;;;19.88;100.00;65068.59;5054472;28;20292;-57
2023/06/26 06:00:35;;;;;;;17.05;15.18;;;;;;;19.86;100.00;65068.94;5072749;28;20269;-61
2023/06/26 06:03:01;;;;;;;19.35;15.00;;;;;;;19.72;100.00;65056.03;5072505;28;20208;-61
2023/06/26 06:05:26;;;;;;;20.02;15.43;;;;;;;19.78;100.00;65057.53;5072455;28;20285;-62
2023/06/26 06:07:52;;;;;;;19.58;15.13;;;;;;;19.81;100.00;65062.88;5072187;28;20596;-61
2023/06/26 06:10:17;;;;;;;17.52;15.63;;;;;;;19.90;100.00;65070.78;5072212;28;20209;-58
2023/06/26 06:12:43;;;;;;;25.40;15.50;;;;;;;19.87;100.00;65067.50;5072335;28;20224;-59
2023/06/26 06:15:08;;;;;;;20.02;15.20;;;;;;;19.77;100.00;65056.44;5072224;28;20216;-58
2023/06/26 06:17:34;;;;;;;15.90;14.27;;;;;;;19.84;100.00;65066.72;5072336;28;20196;-58
2023/06/26 06:19:59;;;;;;;18.67;15.23;;;;;;;19.81;100.00;65063.44;5054055;28;20212;-58
2023/06/26 06:22:25;;;;;;;16.35;14.07;;;;;;;19.84;100.00;65066.16;5072264;28;20200;-59
2023/06/26 06:24:51;;;;;;;15.98;13.90;;;;;;;19.90;100.00;65073.34;5054042;28;20231;-60
2023/06/26 06:27:17;;;;;;;17.60;14.05;;;;;;;19.89;100.00;65069.69;5072348;28;20220;-57
2023/06/26 06:29:42;;;;;;;16.10;14.07;;;;;;;19.94;100.00;65075.22;5071969;28;20213;-58
2023/06/26 06:32:08;;;;;;;19.80;15.00;;;;;;;20.11;100.00;65093.44;5071662;28;20204;-59
2023/06/26 06:34:34;;;;;;;16.88;14.27;;;;;;;20.19;100.00;65102.31;5072023;28;20659;-61
2023/06/26 06:37:00;;;;;;;18.70;14.20;;;;;;;20.25;100.00;65111.50;5053881;28;20616;-63
2023/06/26 06:39:26;;;;;;;18.38;14.13;;;;;;;20.35;100.00;65119.97;5071827;28;20569;-60
2023/06/26 06:41:51;;;;;;;37.53;14.35;;;;;;;20.41;100.00;65126.06;5071817;28;20692;-58
2023/06/26 06:44:16;;;;;;;16.50;14.05;;;;;;;20.30;100.00;65111.34;5071868;28;20270;-61
2023/06/26 06:46:42;;;;;;;16.73;12.85;;;;;;;20.35;100.00;65119.41;5071940;28;20242;-58
2023/06/26 06:49:08;;;;;;;19.70;15.73;;;;;;;20.43;100.00;65133.94;5071604;28;20274;-58
2023/06/26 06:51:34;;;;;;;15.63;13.40;;;;;;;20.76;100.00;65164.75;5071650;28;20580;-59
2023/06/26 06:53:59;;;;;;;20.02;13.70;;;;;;;21.07;100.00;65198.47;5053535;28;20216;-59
2023/06/26 06:56:24;;;;;;;16.27;13.25;;;;;;;21.40;100.00;65237.53;5071456;28;20185;-59
2023/06/26 06:58:50;;;;;;;19.45;13.15;;;;;;;21.42;100.00;65242.31;5071869;28;20284;-60
2023/06/26 07:01:15;;;;;;;16.85;12.43;;;;;;;21.40;100.00;65232.97;5071524;28;20201;-57
2023/06/26 07:03:41;;;;;;;14.70;11.57;;;;;;;21.59;100.00;65256.00;5071603;28;20714;-58
2023/06/26 07:06:06;;;;;;;14.63;12.52;;;;;;;21.73;100.00;65276.63;5071391;28;20243;-57
2023/06/26 07:08:32;;;;;;;15.32;11.88;;;;;;;21.98;100.00;65298.63;5053611;28;20229;-61
2023/06/26 07:10:57;;;;;;;15.43;13.52;;;;;;;22.24;100.00;65327.38;5071378;28;20298;-57
2023/06/26 07:13:23;;;;;;;19.15;12.57;;;;;;;22.30;100.00;65334.03;5071301;28;20217;-59
2023/06/26 07:15:48;;;;;;;14.15;10.75;;;;;;;22.29;100.00;65332.91;5071304;28;20197;-59
2023/06/26 07:18:14;;;;;;;11.18;9.93;;;;;;;22.52;100.00;65361.50;5071303;28;20691;-58
2023/06/26 07:20:40;;;;;;;15.02;9.93;;;;;;;22.19;100.00;65326.97;5071196;28;20282;-55
2023/06/26 07:23:05;;;;;;;12.85;10.35;;;;;;;22.26;100.00;65330.13;5071141;28;20588;-58
2023/06/26 07:25:31;;;;;;;10.45;9.45;;;;;;;22.44;100.00;65349.53;5070936;28;20205;-57
2023/06/26 07:27:56;;;;;;;13.77;10.30;;;;;;;22.41;100.00;65346.19;5071179;28;20209;-57
2023/06/26 07:30:21;;;;;;;12.35;9.38;;;;;;;22.52;100.00;65364.06;5071195;28;20621;-58
2023/06/26 07:32:47;;;;;;;9.73;8.73;;;;;;;22.37;100.00;65341.75;5070849;28;20215;-60
2023/06/26 07:35:12;;;;;;;10.63;9.63;;;;;;;22.54;100.00;65363.16;5071030;28;20593;-58
2023/06/26 07:37:38;;;;;;;12.85;9.90;;;;;;;22.42;100.00;65350.41;5071015;28;20204;-58
2023/06/26 07:40:04;;;;;;;12.25;8.93;;;;;;;22.27;100.00;65330.69;5071190;28;20228;-58
2023/06/26 07:42:30;;;;;;;11.50;8.98;;;;;;;22.46;100.00;65352.28;5071064;28;20205;-58
2023/06/26 07:44:55;;;;;;;9.60;8.52;;;;;;;22.63;100.00;65368.00;5069961;28;20244;-57
2023/06/26 07:47:20;;;;;;;10.32;8.77;;;;;;;22.86;99.34;65396.06;5070853;28;20262;-57
2023/06/26 07:49:46;;;;;;;11.40;8.85;;;;;;;22.84;96.60;65396.41;5070687;28;20243;-57
2023/06/26 07:52:11;;;;;;;10.07;8.23;;;;;;;22.79;95.59;65388.28;5070826;28;20204;-56
2023/06/26 07:54:37;;;;;;;8.48;7.40;;;;;;;22.81;99.29;65390.50;5070642;28;20221;-57
2023/06/26 07:57:06;;;;;;;10.27;8.15;;;;;;;23.12;97.77;65424.84;5053001;28;20219;-59
2023/06/26 07:59:32;;;;;;;9.65;8.13;;;;;;;23.22;95.40;65435.38;5070887;28;20597;-59
2023/06/26 08:01:58;;;;;;;9.73;8.15;;;;;;;23.05;91.04;65419.66;5070579;28;20219;-57
2023/06/26 08:04:28;;;;;;;7.97;7.18;;;;;;;23.03;91.48;65414.88;5070699;28;20208;-59
2023/06/26 08:06:56;;;;;;;7.40;6.70;;;;;;;23.11;91.53;65420.59;5070553;28;20217;-56
2023/06/26 08:09:24;;;;;;;10.73;6.85;;;;;;;23.18;88.70;65430.94;5070571;28;20208;-56
2023/06/26 08:11:50;;;;;;;10.98;6.85;;;;;;;23.37;86.18;65448.88;5070511;28;20196;-59
2023/06/26 08:14:16;;;;;;;11.48;7.40;;;;;;;23.57;89.86;65473.63;5070760;28;20261;-61
2023/06/26 08:16:43;;;;;;;11.48;7.93;;;;;;;23.84;93.53;65504.09;5070666;28;20200;-56
2023/06/26 08:19:09;;;;;;;8.82;6.72;;;;;;;23.61;89.43;65478.59;5070613;28;20216;-57
2023/06/26 08:21:35;;;;;;;11.52;7.45;;;;;;;23.50;87.48;65468.97;5070558;28;20199;-57
2023/06/26 08:24:00;;;;;;;8.23;7.22;;;;;;;23.23;89.68;65436.47;5070446;28;20213;-58
2023/06/26 08:26:25;;;;;;;13.93;7.35;;;;;;;23.40;87.16;65452.75;5070397;28;20601;-61
2023/06/26 08:28:51;;;;;;;8.90;7.15;;;;;;;23.62;86.81;65482.28;5070501;28;20743;-56
2023/06/26 08:31:17;;;;;;;9.75;6.90;;;;;;;23.60;88.18;65477.50;5070673;28;20205;-56
2023/06/26 08:33:42;;;;;;;9.65;6.93;;;;;;;23.57;85.18;65473.63;5070353;28;20626;-58
2023/06/26 08:36:08;;;;;;;9.90;6.63;;;;;;;23.39;84.91;65459.38;5070466;28;20201;-61
2023/06/26 08:38:34;;;;;;;9.20;6.13;;;;;;;23.11;86.91;65420.59;5070486;28;21030;-62
2023/06/26 08:41:00;;;;;;;8.20;6.07;;;;;;;23.22;85.69;65435.91;5070240;28;20185;-61
2023/06/26 08:43:27;;;;;;;6.65;5.65;;;;;;;23.43;83.75;65461.22;5052184;28;20216;-56
2023/06/26 08:45:52;;;;;;;6.85;5.85;;;;;;;23.65;89.63;65483.03;5070232;28;20209;-57
2023/06/26 08:48:20;;;;;;;7.15;6.45;;;;;;;23.31;83.55;65445.91;5069917;28;20767;-58
2023/06/26 08:50:48;;;;;;;10.30;6.25;;;;;;;23.24;85.99;65438.13;5070006;28;20201;-57
2023/06/26 08:53:23;;;;;;;9.52;7.13;;;;;;;23.42;84.98;65457.53;5070122;28;20661;-56
2023/06/26 08:55:52;;;;;;;7.88;5.35;;;;;;;23.24;86.04;65438.13;5071601;28;20203;-58
2023/06/26 08:58:18;;;;;;;8.65;5.53;;;;;;;23.38;83.28;65453.09;5073617;28;20299;-60
2023/06/26 09:00:44;;;;;;;9.15;6.28;;;;;;;23.58;81.92;65474.72;5073340;28;20296;-56
2023/06/26 09:03:10;;;;;;;9.35;6.10;;;;;;;23.49;80.02;65464.75;5073446;28;20208;-56
2023/06/26 09:05:36;;;;;;;8.85;6.20;;;;;;;23.52;80.71;65468.06;5073369;28;20201;-56
2023/06/26 09:08:02;;;;;;;7.22;6.28;;;;;;;23.45;82.89;65457.75;5073283;28;20217;-57
2023/06/26 09:10:27;;;;;;;8.05;5.88;;;;;;;23.49;79.81;65467.88;5073347;28;20287;-57
2023/06/26 09:13:01;;;;;;;7.82;6.25;;;;;;;23.65;79.32;65479.91;5073253;28;20258;-58
2023/06/26 09:15:28;;;;;;;6.65;6.05;;;;;;;24.15;79.47;65537.91;5073253;28;20291;-56
2023/06/26 09:17:57;;;;;;;6.78;5.60;;;;;;;24.06;75.42;65527.94;5073218;28;20213;-55
2023/06/26 09:20:22;;;;;;;8.85;5.65;;;;;;;24.10;76.66;65529.78;5073056;28;20189;-56
2023/06/26 09:22:48;;;;;;;7.85;5.72;;;;;;;24.28;76.12;65552.31;5073171;28;20181;-56
2023/06/26 09:25:14;;;;;;;8.70;6.25;;;;;;;23.89;76.93;65511.66;5073262;28;20694;-57
2023/06/26 09:27:40;;;;;;;6.03;5.47;;;;;;;23.68;76.70;65485.78;5073085;28;20677;-56
2023/06/26 09:30:07;;;;;;;7.00;6.20;;;;;;;24.05;81.51;65526.84;5073260;28;20209;-56
2023/06/26 09:32:38;;;;;;;7.38;5.93;;;;;;;24.33;77.01;65557.31;5073063;28;20201;-56
2023/06/26 09:35:04;;;;;;;6.20;5.60;;;;;;;24.17;76.56;65538.13;5073115;28;20240;-57
2023/06/26 09:37:30;;;;;;;6.40;5.30;;;;;;;23.82;76.22;65501.31;5073180;28;20355;-56
2023/06/26 09:39:55;;;;;;;5.63;5.03;;;;;;;24.00;76.61;65518.69;5072774;28;20205;-58
2023/06/26 09:42:21;;;;;;;6.68;5.57;;;;;;;23.88;76.38;65508.53;5072834;28;20197;-56
2023/06/26 09:44:48;;;;;;;9.68;6.35;;;;;;;23.69;77.47;65486.91;5072764;28;20763;-58
2023/06/26 09:47:17;;;;;;;8.55;5.78;;;;;;;23.87;78.13;65506.88;5072829;28;20216;-60
2023/06/26 09:49:43;;;;;;;6.53;5.82;;;;;;;24.13;83.57;65535.72;5073028;28;20231;-58
2023/06/26 09:52:09;;;;;;;9.60;6.05;;;;;;;23.81;78.16;65500.78;5072919;28;20192;-57
2023/06/26 09:54:35;;;;;;;9.93;6.78;;;;;;;23.75;81.31;65491.00;5073075;28;20228;-55
2023/06/26 09:57:07;;;;;;;7.60;6.07;;;;;;;23.98;80.60;65519.03;5072730;28;20201;-56
2023/06/26 09:59:34;;;;;;;5.78;5.00;;;;;;;24.11;76.38;65530.91;5072806;28;20312;-59
2023/06/26 10:02:00;;;;;;;11.77;5.55;;;;;;;23.85;77.44;65502.63;5054678;28;20235;-59
2023/06/26 10:04:26;;;;;;;7.00;5.82;;;;;;;23.63;76.30;65480.25;5072282;28;20643;-58
2023/06/26 10:06:55;;;;;;;6.93;5.65;;;;;;;23.55;77.79;65473.97;5071448;28;20236;-60
2023/06/26 10:09:22;;;;;;;9.07;5.80;;;;;;;23.49;76.52;65462.75;5072793;28;20216;-62
2023/06/26 10:11:57;;;;;;;7.93;5.60;;;;;;;23.17;75.55;65427.25;5072272;28;20254;-57
2023/06/26 10:14:27;;;;;;;7.10;5.35;;;;;;;23.46;79.91;65459.41;5072334;28;20262;-59
2023/06/26 10:16:56;;;;;;;6.85;5.53;;;;;;;23.57;76.42;65471.59;5072493;28;20212;-58
2023/06/26 10:19:26;;;;;;;7.57;5.55;;;;;;;23.55;76.46;65474.53;5072548;28;20244;-54
2023/06/26 10:21:55;;;;;;;7.80;5.68;;;;;;;23.85;81.11;65504.66;5072186;28;20212;-57
2023/06/26 10:24:22;;;;;;;10.25;6.22;;;;;;;23.89;73.19;65509.09;5072446;28;20216;-61
2023/06/26 10:26:51;;;;;;;8.32;5.63;;;;;;;24.18;77.57;65541.25;5071958;28;20212;-59
2023/06/26 10:29:19;;;;;;;7.13;5.47;;;;;;;24.23;74.84;65546.78;5072022;28;20243;-57
2023/06/26 10:31:51;;;;;;;7.10;5.50;;;;;;;23.96;75.55;65517.38;5071974;28;20725;-56
2023/06/26 10:34:17;;;;;;;7.35;5.55;;;;;;;24.06;79.73;65528.50;5072339;28;20219;-56
2023/06/26 10:36:42;;;;;;;6.40;5.82;;;;;;;24.26;78.92;65550.09;5071990;28;20189;-59
2023/06/26 10:39:08;;;;;;;6.38;5.50;;;;;;;24.36;79.23;65558.09;5054014;28;20217;-56
2023/06/26 10:41:38;;;;;;;7.32;5.85;;;;;;;24.44;77.84;65569.53;5072179;28;20542;-56
2023/06/26 10:44:20;;;;;;;8.45;6.13;;;;;;;24.20;82.26;65546.03;5071892;28;20225;-57
2023/06/26 10:46:53;;;;;;;7.57;5.20;;;;;;;24.13;79.48;65535.72;5071877;28;20338;-57
2023/06/26 10:49:32;;;;;;;9.43;5.90;;;;;;;24.08;77.32;65528.13;5053886;28;20216;-59
2023/06/26 10:52:01;;;;;;;5.63;4.90;;;;;;;24.10;75.04;65532.38;5071910;28;20192;-60
2023/06/26 10:54:30;;;;;;;7.22;4.95;;;;;;;23.98;73.44;65516.47;5072156;28;20236;-55
2023/06/26 10:56:58;;;;;;;8.38;5.53;;;;;;;23.87;68.99;65504.28;5071688;28;20279;-56
2023/06/26 10:59:26;;;;;;;8.48;5.72;;;;;;;23.99;73.33;65522.75;5070321;28;20220;-56
2023/06/26 11:01:59;;;;;;;8.45;5.55;;;;;;;24.18;73.51;65541.25;5071745;28;20176;-56
2023/06/26 11:04:47;;;;;;;8.35;5.68;;;;;;;24.15;72.88;65538.47;5071898;28;20217;-56
2023/06/26 11:07:19;;;;;;;6.10;5.28;;;;;;;24.33;78.98;65557.88;5071610;28;20219;-60
2023/06/26 11:10:06;;;;;;;7.55;5.85;;;;;;;24.14;76.42;65537.38;5071599;28;20216;-59
2023/06/26 11:12:36;;;;;;;6.82;6.05;;;;;;;24.21;79.75;65542.00;5071491;28;20197;-58
2023/06/26 11:15:02;;;;;;;10.70;5.65;;;;;;;24.22;79.50;65542.56;5071289;28;20247;-57